Time;durP1;ratioP1;P1;durP2;ratioP2;P2;SDS_P1;SDS_P2;PMS_P1;PMS_P2;Temp;Humidity;BMP_temperature;BMP_pressure;BME280_temperature;BME280_humidity;BME280_pressure;Samples;Min_cycle;Max_cycle;Signal;HPM_P1;HPM_P2
2021/04/27 00:02:20;;;;;;;1.95;0.10;;;23.40;33.50;;;;;;5049907;28;20025;-46
2021/04/27 00:04:46;;;;;;;0.20;0.03;;;23.40;33.60;;;;;;5052302;28;20028;-45
2021/04/27 00:07:12;;;;;;;0.80;0.30;;;23.30;33.50;;;;;;5037271;28;20621;-48
2021/04/27 00:09:38;;;;;;;0.20;0.10;;;23.30;33.50;;;;;;5044683;28;20037;-48
2021/04/27 00:12:05;;;;;;;0.50;0.10;;;23.30;33.50;;;;;;5033414;28;20095;-49
2021/04/27 00:14:32;;;;;;;0.38;0.10;;;23.30;33.50;;;;;;5051633;28;20489;-45
2021/04/27 00:16:57;;;;;;;0.50;0.10;;;23.30;33.50;;;;;;5034887;28;20126;-45
2021/04/27 00:19:23;;;;;;;0.50;0.10;;;23.30;33.50;;;;;;5033901;28;20116;-47
2021/04/27 00:21:48;;;;;;;0.68;0.10;;;23.20;33.60;;;;;;5042697;28;20026;-46
2021/04/27 00:24:14;;;;;;;0.22;0.10;;;23.20;33.50;;;;;;5051771;28;20036;-49
2021/04/27 00:26:40;;;;;;;0.60;0.10;;;23.20;33.50;;;;;;5045198;28;20031;-48
2021/04/27 00:29:06;;;;;;;0.52;0.08;;;23.20;33.50;;;;;;5046030;28;20037;-45
2021/04/27 00:31:33;;;;;;;0.68;0.10;;;23.20;33.50;;;;;;5044623;28;20056;-46
2021/04/27 00:33:59;;;;;;;0.68;0.10;;;23.20;33.50;;;;;;5045709;28;20036;-47
2021/04/27 00:36:26;;;;;;;1.85;0.10;;;23.20;33.50;;;;;;5055008;28;20422;-46
2021/04/27 00:38:52;;;;;;;0.57;0.10;;;23.20;33.50;;;;;;5061592;28;20066;-48
2021/04/27 00:41:17;;;;;;;0.40;0.10;;;23.20;33.60;;;;;;5035606;28;20029;-48
2021/04/27 00:43:43;;;;;;;0.45;0.10;;;23.20;33.50;;;;;;5054445;28;20086;-47
2021/04/27 00:46:09;;;;;;;0.80;0.10;;;23.20;33.50;;;;;;5055736;28;20029;-46
2021/04/27 00:48:35;;;;;;;0.60;0.10;;;23.10;33.40;;;;;;5046274;28;20063;-45
2021/04/27 00:51:01;;;;;;;0.57;0.10;;;23.10;33.40;;;;;;5039829;28;20065;-48
2021/04/27 00:53:30;;;;;;;1.52;0.10;;;23.10;33.40;;;;;;5039910;28;20025;-48
2021/04/27 00:55:56;;;;;;;1.17;0.10;;;23.10;33.50;;;;;;5052462;28;20032;-45
2021/04/27 00:58:22;;;;;;;0.32;0.10;;;23.10;33.50;;;;;;5051884;28;20082;-46
2021/04/27 01:00:49;;;;;;;0.38;0.10;;;23.10;33.50;;;;;;5045581;28;20567;-47
2021/04/27 01:03:15;;;;;;;0.30;0.10;;;23.10;33.50;;;;;;5039652;28;20041;-47
2021/04/27 01:05:42;;;;;;;0.22;0.05;;;23.10;33.50;;;;;;5041089;28;20108;-46
2021/04/27 01:08:28;;;;;;;1.85;0.03;;;23.10;33.50;;;;;;5043659;28;20024;-46
2021/04/27 01:11:07;;;;;;;0.52;0.10;;;23.00;33.50;;;;;;5044471;28;20531;-49
2021/04/27 01:13:51;;;;;;;0.85;0.10;;;23.00;33.50;;;;;;5052473;28;20079;-46
2021/04/27 01:16:18;;;;;;;0.60;0.10;;;23.00;33.50;;;;;;5054124;28;20035;-46
2021/04/27 01:18:51;;;;;;;0.98;0.10;;;23.00;33.50;;;;;;5044786;28;20037;-46
2021/04/27 01:21:18;;;;;;;0.38;0.10;;;23.00;33.50;;;;;;5041262;28;20048;-47
2021/04/27 01:24:01;;;;;;;0.65;0.10;;;23.00;33.50;;;;;;5034437;28;20030;-48
2021/04/27 01:26:38;;;;;;;0.65;0.10;;;23.00;33.50;;;;;;5059868;28;20112;-47
2021/04/27 01:29:07;;;;;;;0.20;0.10;;;23.00;33.50;;;;;;5052703;28;20398;-47
2021/04/27 01:31:34;;;;;;;0.40;0.00;;;23.00;33.50;;;;;;5029976;28;20029;-49
2021/04/27 01:34:01;;;;;;;0.10;0.00;;;23.00;33.60;;;;;;5054686;28;20037;-46
2021/04/27 01:36:27;;;;;;;1.77;0.10;;;23.00;33.60;;;;;;5032143;28;20244;-45
2021/04/27 01:38:53;;;;;;;1.60;0.10;;;22.90;33.50;;;;;;5058861;28;20705;-47
2021/04/27 01:41:19;;;;;;;0.30;0.08;;;22.90;33.50;;;;;;5049504;28;20201;-46
2021/04/27 01:43:46;;;;;;;0.20;0.00;;;22.90;33.50;;;;;;5053409;28;20036;-45
2021/04/27 01:46:13;;;;;;;0.25;0.10;;;22.90;33.50;;;;;;5066996;28;20029;-46
2021/04/27 01:48:39;;;;;;;0.60;0.05;;;22.90;33.50;;;;;;5050573;28;20112;-48
2021/04/27 01:51:09;;;;;;;0.25;0.10;;;22.90;33.50;;;;;;5063678;28;20082;-46
2021/04/27 01:53:37;;;;;;;1.15;0.10;;;22.90;33.50;;;;;;5024516;28;20029;-46
2021/04/27 01:56:03;;;;;;;0.93;0.10;;;22.90;33.50;;;;;;5049981;28;20060;-48
2021/04/27 01:58:28;;;;;;;1.40;0.10;;;22.90;33.50;;;;;;5057277;28;20471;-45
2021/04/27 02:00:54;;;;;;;0.88;0.10;;;22.90;33.50;;;;;;5051748;28;20032;-48
2021/04/27 02:03:19;;;;;;;0.30;0.05;;;22.90;33.50;;;;;;5060234;28;20034;-45
2021/04/27 02:05:45;;;;;;;0.77;0.10;;;22.80;33.50;;;;;;5049878;28;20055;-46
2021/04/27 02:08:10;;;;;;;0.45;0.05;;;22.90;33.50;;;;;;5047916;28;20659;-46
2021/04/27 02:10:36;;;;;;;0.60;0.10;;;22.80;33.50;;;;;;5048500;28;20032;-45
2021/04/27 02:13:06;;;;;;;0.30;0.10;;;22.80;33.50;;;;;;5057570;28;20489;-46
2021/04/27 02:15:31;;;;;;;0.40;0.00;;;22.80;33.60;;;;;;5057893;28;20032;-46
2021/04/27 02:18:15;;;;;;;0.17;0.00;;;22.80;33.50;;;;;;5057367;28;20048;-46
2021/04/27 02:20:43;;;;;;;0.47;0.10;;;22.80;33.50;;;;;;5045041;28;20036;-45
2021/04/27 02:23:09;;;;;;;0.82;0.10;;;22.80;33.40;;;;;;5050015;28;20024;-48
2021/04/27 02:25:34;;;;;;;0.25;0.05;;;22.80;33.50;;;;;;5038618;28;20068;-48
2021/04/27 02:28:01;;;;;;;1.40;0.10;;;22.80;33.50;;;;;;5064458;28;20052;-45
2021/04/27 02:30:27;;;;;;;0.30;0.10;;;22.80;33.50;;;;;;5054654;28;20040;-47
2021/04/27 02:32:53;;;;;;;1.77;0.00;;;22.80;33.50;;;;;;5066993;28;20047;-47
2021/04/27 02:35:21;;;;;;;0.43;0.10;;;22.80;33.50;;;;;;5037857;28;20041;-45
2021/04/27 02:37:49;;;;;;;1.20;0.10;;;22.80;33.50;;;;;;5031263;28;20025;-44
2021/04/27 02:40:20;;;;;;;0.28;0.08;;;22.80;33.50;;;;;;5040586;28;20037;-48
2021/04/27 02:42:58;;;;;;;0.68;0.03;;;22.70;33.40;;;;;;5058450;28;20032;-47
2021/04/27 02:45:31;;;;;;;0.20;0.00;;;22.70;33.50;;;;;;5062717;28;20401;-44
2021/04/27 02:48:11;;;;;;;0.20;0.00;;;22.70;33.40;;;;;;5044436;28;20028;-46
2021/04/27 02:50:39;;;;;;;1.52;0.10;;;22.70;33.40;;;;;;5032253;28;20022;-45
2021/04/27 02:53:05;;;;;;;0.32;0.10;;;22.70;33.40;;;;;;5041892;28;20097;-45
2021/04/27 02:55:31;;;;;;;0.30;0.10;;;22.70;33.40;;;;;;5040927;28;20100;-48
2021/04/27 02:57:58;;;;;;;0.20;0.05;;;22.70;33.40;;;;;;5033375;28;20048;-46
2021/04/27 03:00:23;;;;;;;0.20;0.00;;;22.70;33.40;;;;;;5043545;28;20398;-46
2021/04/27 03:02:49;;;;;;;0.38;0.00;;;22.70;33.40;;;;;;5036707;28;20056;-47
2021/04/27 03:05:15;;;;;;;0.30;0.10;;;22.70;33.40;;;;;;5046774;28;20519;-44
2021/04/27 03:07:40;;;;;;;0.98;0.00;;;22.70;33.40;;;;;;5067518;28;20031;-47
2021/04/27 03:10:07;;;;;;;2.28;0.10;;;22.70;33.40;;;;;;5049710;28;20031;-45
2021/04/27 03:12:33;;;;;;;0.40;0.10;;;22.60;33.40;;;;;;5050052;28;20029;-44
2021/04/27 03:14:58;;;;;;;0.30;0.10;;;22.60;33.40;;;;;;5059260;28;20070;-46
2021/04/27 03:17:24;;;;;;;0.17;0.00;;;22.60;33.40;;;;;;5040384;28;20108;-46
2021/04/27 03:19:49;;;;;;;0.20;0.08;;;22.60;33.40;;;;;;5047645;28;20032;-46
2021/04/27 03:22:15;;;;;;;0.32;0.10;;;22.60;33.40;;;;;;5037114;28;20112;-45
2021/04/27 03:24:41;;;;;;;0.20;0.10;;;22.60;33.40;;;;;;5053144;28;20081;-46
2021/04/27 03:27:06;;;;;;;0.20;0.00;;;22.60;33.40;;;;;;5065046;28;20060;-48
2021/04/27 03:29:32;;;;;;;0.50;0.00;;;22.60;33.40;;;;;;5046434;28;20082;-48
2021/04/27 03:31:57;;;;;;;1.48;0.10;;;22.60;33.40;;;;;;5066997;28;20046;-46
2021/04/27 03:34:23;;;;;;;1.67;0.10;;;22.60;33.40;;;;;;5054797;28;20029;-45
2021/04/27 03:36:49;;;;;;;0.63;0.10;;;22.60;33.40;;;;;;5039667;28;20033;-47
2021/04/27 03:39:14;;;;;;;0.50;0.10;;;22.50;33.40;;;;;;5032463;28;20495;-46
2021/04/27 03:41:40;;;;;;;1.23;0.28;;;22.50;33.30;;;;;;5047764;28;20025;-46
2021/04/27 03:44:05;;;;;;;1.85;0.03;;;22.50;33.30;;;;;;5050313;28;20028;-49
2021/04/27 03:46:31;;;;;;;0.30;0.10;;;22.60;33.40;;;;;;5059378;28;20490;-45
2021/04/27 03:48:57;;;;;;;0.20;0.00;;;22.50;33.30;;;;;;5045171;28;20112;-45
2021/04/27 03:51:22;;;;;;;0.43;0.10;;;22.50;33.30;;;;;;5050259;28;20029;-47
2021/04/27 03:53:48;;;;;;;0.30;0.10;;;22.50;33.30;;;;;;5046831;28;20174;-47
2021/04/27 03:56:14;;;;;;;0.28;0.10;;;22.50;33.30;;;;;;5046132;28;20038;-46
2021/04/27 03:58:40;;;;;;;0.40;0.10;;;22.50;33.30;;;;;;5040619;28;20040;-47
2021/04/27 04:01:06;;;;;;;0.47;0.10;;;22.50;33.40;;;;;;5049808;28;20036;-45
2021/04/27 04:03:32;;;;;;;0.30;0.10;;;22.50;33.30;;;;;;5046638;28;20375;-50
2021/04/27 04:05:58;;;;;;;1.55;0.10;;;22.50;33.40;;;;;;5061673;28;20035;-45
2021/04/27 04:08:23;;;;;;;0.45;0.08;;;22.50;33.30;;;;;;5042227;28;20022;-47
2021/04/27 04:10:49;;;;;;;0.40;0.10;;;22.50;33.30;;;;;;5029824;28;20040;-46
2021/04/27 04:13:14;;;;;;;0.13;0.00;;;22.40;33.30;;;;;;5041957;28;20107;-48
2021/04/27 04:15:40;;;;;;;0.30;0.00;;;22.50;33.30;;;;;;5062948;28;20520;-47
2021/04/27 04:18:05;;;;;;;0.75;0.13;;;22.50;33.30;;;;;;5052676;28;20422;-45
2021/04/27 04:20:31;;;;;;;0.47;0.10;;;22.40;33.30;;;;;;5043970;28;20115;-45
2021/04/27 04:22:57;;;;;;;0.50;0.10;;;22.40;33.20;;;;;;5043856;28;20037;-46
2021/04/27 04:25:22;;;;;;;0.63;0.10;;;22.40;33.20;;;;;;5055580;28;20044;-48
2021/04/27 04:27:48;;;;;;;1.55;0.00;;;22.40;33.30;;;;;;5060260;28;20029;-46
2021/04/27 04:30:14;;;;;;;1.00;0.10;;;22.40;33.30;;;;;;5057242;28;20027;-48
2021/04/27 04:32:41;;;;;;;0.65;0.10;;;22.40;33.20;;;;;;5040465;28;20108;-46
2021/04/27 04:35:07;;;;;;;1.10;0.10;;;22.40;33.20;;;;;;5052378;28;20028;-45
2021/04/27 04:37:33;;;;;;;0.22;0.00;;;22.40;33.20;;;;;;5058285;28;20025;-48
2021/04/27 04:39:59;;;;;;;0.32;0.10;;;22.40;33.30;;;;;;5037355;28;20560;-46
2021/04/27 04:42:25;;;;;;;0.68;0.10;;;22.40;33.20;;;;;;5041273;28;20040;-46
2021/04/27 04:44:51;;;;;;;0.30;0.10;;;22.40;33.20;;;;;;5065647;28;20035;-45
2021/04/27 04:47:16;;;;;;;1.00;0.10;;;22.40;33.30;;;;;;5046272;28;20033;-48
2021/04/27 04:49:42;;;;;;;1.23;0.15;;;22.40;33.20;;;;;;5041987;28;20075;-47
2021/04/27 04:52:08;;;;;;;0.28;0.10;;;22.40;33.80;;;;;;5048636;28;20040;-46
2021/04/27 04:54:33;;;;;;;0.40;0.10;;;22.30;33.20;;;;;;5051348;28;20036;-51
2021/04/27 04:56:59;;;;;;;0.85;0.10;;;22.30;33.30;;;;;;5044932;28;20489;-45
2021/04/27 04:59:25;;;;;;;0.40;0.10;;;22.40;33.30;;;;;;5049878;28;20025;-45
2021/04/27 05:01:50;;;;;;;0.85;0.10;;;22.40;33.30;;;;;;5047303;28;20029;-47
2021/04/27 05:04:16;;;;;;;0.25;0.10;;;22.30;33.20;;;;;;5049789;28;20056;-46
2021/04/27 05:06:43;;;;;;;0.60;0.10;;;22.30;33.20;;;;;;5039679;28;20018;-47
2021/04/27 05:09:12;;;;;;;0.52;0.10;;;22.30;33.30;;;;;;5037011;28;20486;-47
2021/04/27 05:11:37;;;;;;;0.80;0.15;;;22.30;33.20;;;;;;5048024;28;20461;-46
2021/04/27 05:14:03;;;;;;;0.40;0.10;;;22.30;33.20;;;;;;5049143;28;20112;-45
2021/04/27 05:16:29;;;;;;;0.20;0.10;;;22.30;33.30;;;;;;5034707;28;20040;-45
2021/04/27 05:18:56;;;;;;;0.40;0.10;;;22.30;33.20;;;;;;5043522;28;20037;-47
2021/04/27 05:21:22;;;;;;;0.20;0.00;;;22.30;33.20;;;;;;5054285;28;20029;-47
2021/04/27 05:23:48;;;;;;;0.13;0.00;;;22.30;33.30;;;;;;5052353;28;20029;-47
2021/04/27 05:26:13;;;;;;;0.25;0.10;;;22.30;33.30;;;;;;5049222;28;20056;-47
2021/04/27 05:28:39;;;;;;;0.30;0.10;;;22.30;33.30;;;;;;5054556;28;20029;-47
2021/04/27 05:31:05;;;;;;;0.30;0.10;;;22.30;33.30;;;;;;5052604;28;20024;-46
2021/04/27 05:33:31;;;;;;;2.20;0.10;;;22.30;33.30;;;;;;5046332;28;20029;-44
2021/04/27 05:35:57;;;;;;;1.20;0.10;;;22.30;33.20;;;;;;5033568;28;20753;-46
2021/04/27 05:38:23;;;;;;;1.15;0.10;;;22.20;33.10;;;;;;5042887;28;20107;-46
2021/04/27 05:40:48;;;;;;;0.50;0.10;;;22.30;33.00;;;;;;5040153;28;20033;-50
2021/04/27 05:43:14;;;;;;;0.45;0.10;;;22.20;32.90;;;;;;5055661;28;20033;-47
2021/04/27 05:45:40;;;;;;;4.03;0.20;;;22.20;32.80;;;;;;5048768;28;20101;-46
2021/04/27 05:48:06;;;;;;;2.05;0.30;;;22.20;32.80;;;;;;5049792;28;20029;-47
2021/04/27 05:50:32;;;;;;;0.80;0.10;;;22.20;32.80;;;;;;5043691;28;20029;-48
2021/04/27 05:52:57;;;;;;;0.47;0.10;;;22.20;32.90;;;;;;5047017;28;20037;-47
2021/04/27 05:55:23;;;;;;;1.00;0.10;;;22.20;32.90;;;;;;5056010;28;20490;-48
2021/04/27 05:57:50;;;;;;;0.98;0.10;;;22.20;32.80;;;;;;5065840;28;20060;-45
2021/04/27 06:00:16;;;;;;;1.45;0.15;;;22.20;32.70;;;;;;5049020;28;20040;-46
2021/04/27 06:02:42;;;;;;;2.45;0.35;;;22.20;32.60;;;;;;5041755;28;20027;-45
2021/04/27 06:05:09;;;;;;;0.30;0.10;;;22.20;32.50;;;;;;5049298;28;20425;-47
2021/04/27 06:07:35;;;;;;;3.03;0.20;;;22.20;32.60;;;;;;5055138;28;20520;-45
2021/04/27 06:10:00;;;;;;;1.15;0.20;;;22.30;32.60;;;;;;5045944;28;20044;-46
2021/04/27 06:12:26;;;;;;;1.42;0.20;;;22.30;32.40;;;;;;5036252;28;20025;-47
2021/04/27 06:14:52;;;;;;;0.60;0.20;;;22.40;32.80;;;;;;5045911;28;20057;-47
2021/04/27 06:17:18;;;;;;;2.28;0.10;;;22.50;32.80;;;;;;5040139;28;20033;-47
2021/04/27 06:19:44;;;;;;;0.50;0.20;;;22.50;32.60;;;;;;5052094;28;20082;-47
2021/04/27 06:22:09;;;;;;;1.08;0.10;;;22.60;32.50;;;;;;5063740;28;20067;-49
2021/04/27 06:24:35;;;;;;;0.85;0.10;;;22.70;32.40;;;;;;5059933;28;20040;-46
2021/04/27 06:27:00;;;;;;;1.67;0.10;;;22.80;32.50;;;;;;5053068;28;20089;-48
2021/04/27 06:29:26;;;;;;;0.38;0.10;;;22.80;32.50;;;;;;5060639;28;20028;-48
2021/04/27 06:31:51;;;;;;;0.75;0.30;;;22.80;32.40;;;;;;5053373;28;20108;-47
2021/04/27 06:34:17;;;;;;;1.50;0.17;;;22.90;32.40;;;;;;5057435;28;20021;-47
2021/04/27 06:36:43;;;;;;;0.68;0.10;;;22.90;32.30;;;;;;5041261;28;20059;-47
2021/04/27 06:39:08;;;;;;;0.30;0.10;;;23.00;32.40;;;;;;5040487;28;20051;-46
2021/04/27 06:41:34;;;;;;;0.75;0.10;;;23.00;32.30;;;;;;5045460;28;20600;-44
2021/04/27 06:44:01;;;;;;;0.40;0.10;;;23.00;32.30;;;;;;5037818;28;20037;-45
2021/04/27 06:46:27;;;;;;;0.45;0.15;;;23.10;32.40;;;;;;5045349;28;20017;-47
2021/04/27 06:48:53;;;;;;;0.22;0.10;;;23.00;32.30;;;;;;5045896;28;20036;-47
2021/04/27 06:51:19;;;;;;;1.92;0.32;;;23.00;32.30;;;;;;5039490;28;20037;-47
2021/04/27 06:53:47;;;;;;;0.57;0.10;;;23.10;32.80;;;;;;5056867;28;20025;-50
2021/04/27 06:56:13;;;;;;;1.00;0.10;;;23.00;32.80;;;;;;5063838;28;20025;-46
2021/04/27 06:58:39;;;;;;;1.48;0.15;;;23.00;32.30;;;;;;5049578;28;20601;-46
2021/04/27 07:01:05;;;;;;;2.15;0.40;;;23.00;32.30;;;;;;5048071;28;20041;-49
2021/04/27 07:03:32;;;;;;;3.05;0.20;;;23.00;32.30;;;;;;5058330;28;20052;-45
2021/04/27 07:05:57;;;;;;;2.70;0.30;;;23.10;32.80;;;;;;5057619;28;20036;-46
2021/04/27 07:08:23;;;;;;;1.95;0.20;;;23.10;33.20;;;;;;5065011;28;20504;-46
2021/04/27 07:10:50;;;;;;;1.20;0.30;;;23.10;33.30;;;;;;5053061;28;20028;-48
2021/04/27 07:13:15;;;;;;;1.17;0.20;;;23.20;33.40;;;;;;5051622;28;20025;-44
2021/04/27 07:15:41;;;;;;;2.20;0.20;;;23.20;33.40;;;;;;5052302;28;20082;-47
2021/04/27 07:18:06;;;;;;;2.33;0.20;;;23.20;33.50;;;;;;5047798;28;20129;-43
2021/04/27 07:20:32;;;;;;;3.67;0.40;;;23.20;33.40;;;;;;5049848;28;20090;-42
2021/04/27 07:22:58;;;;;;;1.58;0.32;;;23.20;33.70;;;;;;5058582;28;20040;-43
2021/04/27 07:25:24;;;;;;;1.65;0.30;;;23.20;33.80;;;;;;5058210;28;20020;-46
2021/04/27 07:27:50;;;;;;;2.65;0.40;;;23.20;34.40;;;;;;5057961;28;20494;-46
2021/04/27 07:30:16;;;;;;;1.15;0.25;;;23.20;34.30;;;;;;5053555;28;20095;-41
2021/04/27 07:32:42;;;;;;;1.10;0.30;;;23.30;34.00;;;;;;5049982;28;20029;-53
2021/04/27 07:35:09;;;;;;;3.03;0.40;;;23.20;33.70;;;;;;5059034;28;20028;-52
2021/04/27 07:37:35;;;;;;;1.83;0.22;;;23.30;33.40;;;;;;5052084;28;20111;-51
2021/04/27 07:40:00;;;;;;;1.80;0.30;;;23.30;33.60;;;;;;5049793;28;20039;-52
2021/04/27 07:42:26;;;;;;;2.78;0.47;;;23.30;33.70;;;;;;5056831;28;20442;-51
2021/04/27 07:44:52;;;;;;;3.88;0.40;;;23.30;33.60;;;;;;5056644;28;20029;-51
2021/04/27 07:47:17;;;;;;;1.60;0.50;;;23.30;33.20;;;;;;5054795;28;20024;-50
2021/04/27 07:49:43;;;;;;;4.38;0.60;;;23.30;33.10;;;;;;5052255;28;20037;-48
2021/04/27 07:52:09;;;;;;;1.98;0.55;;;23.30;33.70;;;;;;5060254;28;20100;-43
2021/04/27 07:54:35;;;;;;;3.03;0.50;;;23.30;33.80;;;;;;5056554;28;20063;-46
2021/04/27 07:57:00;;;;;;;4.63;0.82;;;23.30;33.70;;;;;;5043799;28;20064;-47
2021/04/27 07:59:26;;;;;;;1.83;0.52;;;23.40;33.80;;;;;;5056482;28;20680;-49
2021/04/27 08:01:51;;;;;;;2.95;0.80;;;23.40;33.70;;;;;;5047968;28;20039;-46
2021/04/27 08:04:18;;;;;;;5.43;1.13;;;23.40;33.70;;;;;;5045120;28;20035;-53
2021/04/27 08:06:44;;;;;;;2.05;0.60;;;23.40;34.30;;;;;;5044299;28;20456;-52
2021/04/27 08:09:09;;;;;;;3.78;0.95;;;23.40;33.80;;;;;;5053727;28;20025;-51
2021/04/27 08:11:37;;;;;;;1.83;0.93;;;23.40;33.70;;;;;;5055592;28;20028;-46
2021/04/27 08:14:03;;;;;;;4.10;1.00;;;23.40;33.70;;;;;;5061722;28;20371;-51
2021/04/27 08:16:29;;;;;;;2.40;0.73;;;23.40;33.70;;;;;;5051741;28;20028;-51
2021/04/27 08:18:55;;;;;;;2.38;1.02;;;23.40;33.70;;;;;;5049167;28;20032;-47
2021/04/27 08:21:21;;;;;;;2.85;1.10;;;23.40;33.90;;;;;;5053441;28;20047;-51
2021/04/27 08:23:46;;;;;;;1.80;1.23;;;23.40;33.90;;;;;;5060607;28;20066;-47
2021/04/27 08:26:13;;;;;;;3.05;0.77;;;23.50;35.10;;;;;;5051340;28;20629;-46
2021/04/27 08:28:39;;;;;;;5.10;1.70;;;23.50;35.10;;;;;;5053579;28;20116;-46
2021/04/27 08:31:06;;;;;;;3.53;1.73;;;23.50;35.20;;;;;;5062132;28;20035;-47
2021/04/27 08:33:31;;;;;;;2.03;1.60;;;23.50;35.60;;;;;;5050648;28;20040;-47
2021/04/27 08:35:57;;;;;;;3.30;1.50;;;23.50;35.80;;;;;;5055489;28;20017;-46
2021/04/27 08:38:23;;;;;;;3.22;1.63;;;23.50;35.80;;;;;;5042484;28;20025;-47
2021/04/27 08:40:50;;;;;;;4.80;2.15;;;23.50;35.90;;;;;;5046648;28;20032;-47
2021/04/27 08:43:16;;;;;;;5.22;2.17;;;23.50;36.00;;;;;;5061887;28;20086;-45
2021/04/27 08:45:43;;;;;;;3.67;2.50;;;23.50;35.90;;;;;;5051196;28;20390;-46
2021/04/27 08:48:13;;;;;;;3.40;1.92;;;23.60;35.80;;;;;;5057187;28;20389;-39
2021/04/27 08:50:39;;;;;;;3.10;2.08;;;23.50;35.80;;;;;;5059097;28;20021;-48
2021/04/27 08:53:06;;;;;;;3.55;2.80;;;23.60;35.90;;;;;;5050101;28;20045;-46
2021/04/27 08:55:31;;;;;;;3.25;2.55;;;23.60;36.10;;;;;;5052925;28;20024;-45
2021/04/27 08:57:57;;;;;;;6.90;3.15;;;23.60;36.30;;;;;;5060778;28;20047;-48
2021/04/27 09:00:24;;;;;;;3.60;2.58;;;23.60;36.30;;;;;;5056996;28;20386;-45
2021/04/27 09:02:56;;;;;;;4.85;2.90;;;23.60;36.10;;;;;;5055197;28;20028;-47
2021/04/27 09:05:27;;;;;;;3.15;2.45;;;23.60;36.20;;;;;;5058752;28;20025;-49
2021/04/27 09:07:54;;;;;;;4.55;3.10;;;23.60;36.50;;;;;;5058949;28;20025;-45
2021/04/27 09:10:23;;;;;;;3.50;2.90;;;23.60;36.90;;;;;;5058573;28;20032;-46
2021/04/27 09:13:03;;;;;;;3.90;2.28;;;23.60;37.20;;;;;;5059936;28;20417;-44
2021/04/27 09:15:47;;;;;;;3.15;2.58;;;23.70;37.30;;;;;;5052440;28;20029;-49
2021/04/27 09:18:36;;;;;;;4.18;3.03;;;23.70;37.30;;;;;;5033135;28;20044;-43
2021/04/27 09:21:07;;;;;;;4.22;2.88;;;23.70;37.40;;;;;;5031162;28;20038;-48
2021/04/27 09:23:35;;;;;;;3.25;2.95;;;23.70;37.40;;;;;;5042141;28;20033;-43
2021/04/27 09:26:09;;;;;;;2.72;2.42;;;23.70;37.40;;;;;;5050857;28;20047;-47
2021/04/27 09:28:36;;;;;;;4.93;3.17;;;23.70;37.60;;;;;;5048668;28;20021;-44
2021/04/27 09:31:23;;;;;;;3.45;2.97;;;23.70;37.60;;;;;;5047869;28;20028;-44
2021/04/27 09:33:49;;;;;;;4.72;3.22;;;23.80;37.80;;;;;;5037732;28;20576;-47
2021/04/27 09:36:24;;;;;;;3.58;2.83;;;23.80;37.80;;;;;;5045155;28;20116;-44
2021/04/27 09:38:54;;;;;;;4.47;3.75;;;23.80;37.70;;;;;;5057204;28;20029;-44
2021/04/27 09:41:24;;;;;;;6.45;3.40;;;23.80;38.00;;;;;;5038882;28;20091;-45
2021/04/27 09:43:50;;;;;;;3.30;3.00;;;23.80;38.20;;;;;;5052772;28;20039;-45
2021/04/27 09:46:18;;;;;;;3.22;2.53;;;23.80;38.30;;;;;;5038003;28;20359;-45
2021/04/27 09:48:47;;;;;;;4.00;2.92;;;23.80;38.10;;;;;;5037481;28;20036;-47
2021/04/27 09:51:12;;;;;;;5.38;3.13;;;23.80;37.90;;;;;;5056379;28;20103;-49
2021/04/27 09:53:46;;;;;;;4.05;2.33;;;23.80;37.80;;;;;;5066715;28;20115;-44
2021/04/27 09:56:30;;;;;;;3.28;2.60;;;23.90;37.80;;;;;;5041345;28;20025;-44
2021/04/27 09:59:15;;;;;;;6.05;3.20;;;23.90;37.60;;;;;;5046824;28;20079;-47
2021/04/27 10:01:45;;;;;;;2.97;2.58;;;23.90;37.70;;;;;;5034681;28;20029;-49
2021/04/27 10:04:11;;;;;;;4.20;2.55;;;23.90;37.70;;;;;;5041420;28;20047;-45
2021/04/27 10:06:40;;;;;;;5.78;2.90;;;23.90;37.70;;;;;;5050629;28;20490;-45
2021/04/27 10:09:06;;;;;;;4.28;2.85;;;24.00;37.90;;;;;;5049731;28;20039;-47
2021/04/27 10:11:32;;;;;;;2.88;2.63;;;24.00;37.90;;;;;;5049170;28;20028;-46
2021/04/27 10:13:58;;;;;;;5.45;2.80;;;24.00;38.00;;;;;;5053077;28;20117;-44
2021/04/27 10:16:24;;;;;;;2.90;2.60;;;24.00;37.70;;;;;;5059287;28;20039;-43
2021/04/27 10:18:53;;;;;;;2.78;2.50;;;23.90;37.40;;;;;;5048971;28;20045;-44
2021/04/27 10:21:18;;;;;;;4.63;2.83;;;24.00;36.90;;;;;;5048624;28;20040;-48
2021/04/27 10:23:49;;;;;;;2.60;2.40;;;24.00;36.90;;;;;;5048002;28;20025;-48
2021/04/27 10:26:19;;;;;;;6.25;2.55;;;24.00;37.00;;;;;;5057880;28;20042;-46
2021/04/27 10:28:58;;;;;;;4.20;2.55;;;24.00;37.30;;;;;;5074442;28;20158;-46
2021/04/27 10:31:26;;;;;;;2.38;1.90;;;24.00;37.50;;;;;;5059460;28;20584;-45
2021/04/27 10:34:07;;;;;;;3.30;2.15;;;24.00;37.60;;;;;;5061267;28;20129;-47
2021/04/27 10:36:59;;;;;;;3.17;2.22;;;24.00;37.90;;;;;;5060307;28;20028;-48
2021/04/27 10:39:54;;;;;;;3.05;2.55;;;24.10;37.90;;;;;;5059525;28;20032;-47
2021/04/27 10:42:31;;;;;;;1.98;1.83;;;24.10;37.80;;;;;;5024015;28;20564;-46
2021/04/27 10:45:06;;;;;;;2.63;2.05;;;24.10;38.00;;;;;;5050805;28;20094;-43
2021/04/27 10:47:40;;;;;;;2.45;2.08;;;24.10;37.90;;;;;;5034411;28;20033;-45
2021/04/27 10:50:06;;;;;;;3.20;2.17;;;24.10;38.20;;;;;;5032262;28;20065;-44
2021/04/27 10:52:34;;;;;;;3.67;2.03;;;24.10;38.10;;;;;;5043800;28;20033;-44
2021/04/27 10:55:23;;;;;;;2.83;1.60;;;24.10;38.10;;;;;;5050905;28;20119;-42
2021/04/27 10:57:49;;;;;;;1.92;1.70;;;24.20;38.20;;;;;;5066815;28;20108;-47
2021/04/27 11:00:47;;;;;;;2.67;1.75;;;24.20;37.70;;;;;;5050463;28;20096;-44
2021/04/27 11:03:25;;;;;;;2.33;1.58;;;24.20;38.30;;;;;;5026990;28;20051;-43
2021/04/27 11:05:58;;;;;;;2.30;1.88;;;24.20;38.20;;;;;;5032709;28;20029;-45
2021/04/27 11:08:50;;;;;;;3.22;1.90;;;24.20;37.90;;;;;;5045718;28;20032;-46
2021/04/27 11:11:31;;;;;;;2.70;1.13;;;24.20;38.00;;;;;;5050590;28;20033;-42
2021/04/27 11:14:17;;;;;;;2.97;1.50;;;24.30;38.20;;;;;;5044576;28;20104;-43
2021/04/27 11:16:52;;;;;;;2.10;1.45;;;24.30;38.30;;;;;;5038962;28;20037;-45
2021/04/27 11:19:18;;;;;;;1.92;1.75;;;24.30;38.00;;;;;;5033719;28;20033;-44
2021/04/27 11:21:45;;;;;;;2.10;1.90;;;24.30;37.80;;;;;;5044103;28;20052;-45
2021/04/27 11:24:48;;;;;;;2.08;1.35;;;24.30;38.00;;;;;;5058161;28;20036;-41
2021/04/27 11:27:35;;;;;;;1.95;1.75;;;24.30;38.20;;;;;;5054691;28;20023;-44
2021/04/27 11:30:02;;;;;;;3.83;1.50;;;24.30;38.20;;;;;;5047165;28;20681;-44
2021/04/27 11:32:30;;;;;;;2.15;1.38;;;24.30;38.30;;;;;;5037048;28;20045;-52
2021/04/27 11:34:59;;;;;;;1.90;1.63;;;24.30;38.00;;;;;;5038169;28;20439;-51
2021/04/27 11:37:30;;;;;;;1.23;0.98;;;24.30;38.00;;;;;;5048930;28;20039;-50
2021/04/27 11:39:58;;;;;;;3.40;1.55;;;24.30;38.10;;;;;;5064712;28;20024;-47
2021/04/27 11:42:30;;;;;;;4.70;1.70;;;24.40;38.20;;;;;;5045840;28;20036;-49
2021/04/27 11:45:08;;;;;;;2.42;1.75;;;24.50;38.30;;;;;;5046819;28;20653;-49
2021/04/27 11:47:39;;;;;;;3.53;1.27;;;24.50;38.40;;;;;;5036481;28;20033;-44
2021/04/27 11:50:10;;;;;;;1.63;1.52;;;24.50;38.40;;;;;;5067051;28;20032;-50
2021/04/27 11:52:44;;;;;;;1.90;0.85;;;24.50;38.50;;;;;;5034913;28;20525;-47
2021/04/27 11:55:41;;;;;;;1.70;1.27;;;24.50;38.70;;;;;;5043578;28;20040;-50
2021/04/27 11:58:23;;;;;;;2.17;1.50;;;24.50;39.00;;;;;;5044352;28;20583;-47
2021/04/27 12:00:57;;;;;;;1.58;1.30;;;24.50;39.10;;;;;;5042281;28;20029;-46
2021/04/27 12:03:27;;;;;;;2.03;1.27;;;24.50;37.30;;;;;;5058311;28;20116;-48
2021/04/27 12:05:58;;;;;;;4.13;1.38;;;24.50;38.50;;;;;;5048889;28;20071;-48
2021/04/27 12:08:37;;;;;;;3.15;1.38;;;24.50;38.60;;;;;;5038137;28;20025;-46
2021/04/27 12:11:34;;;;;;;2.45;1.42;;;24.50;38.70;;;;;;5038380;28;20044;-45
2021/04/27 12:14:11;;;;;;;1.40;1.20;;;24.50;38.70;;;;;;5015541;28;20118;-54
2021/04/27 12:16:41;;;;;;;2.30;1.25;;;24.50;38.80;;;;;;5037302;28;20018;-50
2021/04/27 12:19:11;;;;;;;2.05;1.40;;;24.50;39.30;;;;;;5040896;28;20047;-49
2021/04/27 12:21:45;;;;;;;2.63;1.08;;;24.50;39.50;;;;;;5037996;28;20033;-47
2021/04/27 12:24:11;;;;;;;1.73;1.02;;;24.50;39.70;;;;;;5032519;28;20056;-49
2021/04/27 12:26:38;;;;;;;1.65;1.33;;;24.60;39.90;;;;;;5034009;28;20037;-50
2021/04/27 12:29:05;;;;;;;1.15;0.90;;;24.60;39.90;;;;;;5034166;28;20457;-51
2021/04/27 12:31:33;;;;;;;2.80;1.00;;;24.60;40.00;;;;;;5030094;28;20022;-47
2021/04/27 12:34:02;;;;;;;1.98;1.05;;;24.60;40.00;;;;;;5032433;28;20631;-48
2021/04/27 12:36:34;;;;;;;2.30;1.20;;;24.60;40.40;;;;;;5035520;28;20032;-48
2021/04/27 12:39:01;;;;;;;3.05;1.45;;;24.60;40.40;;;;;;5031175;28;20517;-47
2021/04/27 12:41:38;;;;;;;2.70;1.17;;;24.60;40.40;;;;;;5037454;28;20094;-47
2021/04/27 12:44:28;;;;;;;5.18;1.63;;;24.60;40.60;;;;;;5038563;28;20040;-45
2021/04/27 12:46:54;;;;;;;2.55;1.27;;;24.60;40.40;;;;;;5053087;28;20063;-43
2021/04/27 12:49:25;;;;;;;2.85;1.13;;;24.60;40.40;;;;;;5048963;28;20686;-51
2021/04/27 12:52:02;;;;;;;1.35;0.95;;;24.60;40.40;;;;;;5036476;28;20112;-46
2021/04/27 12:54:29;;;;;;;1.63;1.00;;;24.70;40.60;;;;;;5040658;28;20059;-47
2021/04/27 12:57:10;;;;;;;1.30;0.80;;;24.60;40.50;;;;;;5044311;28;20566;-46